Time;durP1;ratioP1;P1;durP2;ratioP2;P2;SDS_P1;SDS_P2;PMS_P1;PMS_P2;Temp;Humidity;BMP_temperature;BMP_pressure;BME280_temperature;BME280_humidity;BME280_pressure;Samples;Min_cycle;Max_cycle;Signal;HPM_P1;HPM_P2
2023/02/03 00:02:26;;;;;;;;;;;;;;;20.72;40.26;102582.28;7261097;19;155418;-79
2023/02/03 00:04:53;;;;;;;;;;;;;;;20.75;40.24;102590.19;7258209;19;155175;-78
2023/02/03 00:07:19;;;;;;;;;;;;;;;20.80;39.99;102583.75;7260342;19;154310;-79
2023/02/03 00:09:46;;;;;;;;;;;;;;;20.83;40.41;102583.22;7262980;19;154377;-79
2023/02/03 00:12:13;;;;;;;;;;;;;;;20.88;40.27;102582.41;7265491;19;154251;-78
2023/02/03 00:14:41;;;;;;;;;;;;;;;20.92;40.20;102594.78;7261452;19;153721;-80
2023/02/03 00:17:08;;;;;;;;;;;;;;;20.94;39.79;102596.19;7260207;19;153837;-79
2023/02/03 00:19:36;;;;;;;;;;;;;;;20.96;40.27;102598.75;7258795;19;152939;-79
2023/02/03 00:22:03;;;;;;;;;;;;;;;20.98;40.19;102588.94;7257564;19;154220;-78
2023/02/03 00:24:29;;;;;;;;;;;;;;;20.99;40.20;102595.38;7261766;19;154663;-78
2023/02/03 00:26:56;;;;;;;;;;;;;;;21.01;39.90;102601.59;7267991;19;153027;-78
2023/02/03 00:29:24;;;;;;;;;;;;;;;21.03;40.09;102602.19;7267504;19;154378;-79
2023/02/03 00:31:52;;;;;;;;;;;;;;;21.02;40.32;102597.66;7265073;19;156854;-79
2023/02/03 00:34:20;;;;;;;;;;;;;;;21.04;39.94;102601.03;7274885;19;153725;-78
2023/02/03 00:36:47;;;;;;;;;;;;;;;21.03;40.32;102590.94;7266175;19;153834;-78
2023/02/03 00:39:16;;;;;;;;;;;;;;;21.04;40.11;102586.97;7268014;19;153437;-78
2023/02/03 00:41:43;;;;;;;;;;;;;;;21.04;40.11;102589.78;7267760;19;155444;-79
2023/02/03 00:44:10;;;;;;;;;;;;;;;21.05;40.38;102592.34;7267634;19;155048;-78
2023/02/03 00:46:38;;;;;;;;;;;;;;;21.04;40.51;102579.41;7267231;19;152937;-79
2023/02/03 00:49:05;;;;;;;;;;;;;;;21.04;40.57;102570.13;7265869;19;154543;-79
2023/02/03 00:51:32;;;;;;;;;;;;;;;21.04;40.63;102561.69;7266504;19;153973;-79
2023/02/03 00:54:00;;;;;;;;;;;;;;;21.04;40.61;102558.88;7266264;19;153944;-79
2023/02/03 00:56:27;;;;;;;;;;;;;;;21.03;40.48;102555.22;7274057;19;155104;-79
2023/02/03 00:58:54;;;;;;;;;;;;;;;21.03;40.79;102545.97;7266224;19;153839;-79
2023/02/03 01:01:21;;;;;;;;;;;;;;;21.03;40.71;102546.78;7267569;19;152622;-80
2023/02/03 01:03:49;;;;;;;;;;;;;;;21.03;40.47;102558.03;7266014;19;155227;-79
2023/02/03 01:06:18;;;;;;;;;;;;;;;21.02;40.74;102561.97;7264129;19;152500;-80
2023/02/03 01:08:47;;;;;;;;;;;;;;;21.00;40.53;102560.53;7262718;19;152534;-79
2023/02/03 01:11:16;;;;;;;;;;;;;;;20.99;40.54;102568.13;7262985;19;152676;-79
2023/02/03 01:13:43;;;;;;;;;;;;;;;20.98;40.68;102568.41;7258462;19;156876;-80
2023/02/03 01:16:13;;;;;;;;;;;;;;;20.96;41.02;102567.84;7265023;19;153569;-79
2023/02/03 01:18:40;;;;;;;;;;;;;;;20.95;40.89;102571.75;7259118;19;152939;-79
2023/02/03 01:21:10;;;;;;;;;;;;;;;20.92;41.11;102561.06;7262419;19;154768;-79
2023/02/03 01:23:37;;;;;;;;;;;;;;;20.90;41.42;102566.94;7260312;19;155287;-79
2023/02/03 01:26:05;;;;;;;;;;;;;;;20.88;41.30;102566.38;7264463;19;153344;-79
2023/02/03 01:28:32;;;;;;;;;;;;;;;20.86;41.43;102563.84;7264723;19;154402;-79
2023/02/03 01:31:02;;;;;;;;;;;;;;;20.85;41.66;102556.53;7268853;19;154170;-79
2023/02/03 01:33:29;;;;;;;;;;;;;;;20.86;41.81;102558.22;7270949;19;152890;-79
2023/02/03 01:35:59;;;;;;;;;;;;;;;20.86;41.61;102563.00;7261288;19;153429;-79
2023/02/03 01:38:26;;;;;;;;;;;;;;;20.84;41.92;102568.06;7272988;19;155068;-79
2023/02/03 01:40:53;;;;;;;;;;;;;;;20.83;41.67;102555.13;7265728;19;156681;-79
2023/02/03 01:43:23;;;;;;;;;;;;;;;20.81;42.04;102561.00;7265333;19;154261;-79
2023/02/03 01:45:51;;;;;;;;;;;;;;;20.82;41.63;102561.84;7265492;19;153820;-79
2023/02/03 01:48:18;;;;;;;;;;;;;;;20.81;41.71;102571.38;7263429;19;154285;-79
2023/02/03 01:50:45;;;;;;;;;;;;;;;20.81;42.06;102568.56;7257693;19;154193;-79
2023/02/03 01:53:12;;;;;;;;;;;;;;;20.81;42.12;102561.00;7259183;19;153730;-80
2023/02/03 01:55:43;;;;;;;;;;;;;;;20.77;42.00;102564.63;7261535;19;155916;-79
2023/02/03 01:58:15;;;;;;;;;;;;;;;20.74;41.89;102557.59;7259902;19;154652;-79
2023/02/03 02:00:42;;;;;;;;;;;;;;;20.75;41.76;102564.91;7269235;19;153666;-79
2023/02/03 02:03:12;;;;;;;;;;;;;;;20.72;41.92;102565.44;7262324;19;153060;-80
2023/02/03 02:05:42;;;;;;;;;;;;;;;20.74;41.88;102560.41;7260978;19;154921;-79
2023/02/03 02:08:11;;;;;;;;;;;;;;;20.71;41.93;102560.94;7262415;19;153913;-79
2023/02/03 02:10:39;;;;;;;;;;;;;;;20.67;42.51;102554.16;7261174;19;155495;-80
2023/02/03 02:13:06;;;;;;;;;;;;;;;20.68;42.47;102539.00;7260286;19;153564;-80
2023/02/03 02:15:42;;;;;;;;;;;;;;;20.69;42.35;102539.84;7263181;19;154735;-80
2023/02/03 02:18:13;;;;;;;;;;;;;;;20.64;42.38;102526.63;7261710;19;154846;-79
2023/02/03 02:20:44;;;;;;;;;;;;;;;20.60;42.13;102528.28;7258814;19;152472;-80
2023/02/03 02:23:14;;;;;;;;;;;;;;;20.61;42.36;102515.94;7262563;19;153682;-79
2023/02/03 02:25:44;;;;;;;;;;;;;;;20.55;42.55;102511.41;7255788;19;152384;-80
2023/02/03 02:28:14;;;;;;;;;;;;;;;20.54;42.32;102515.31;7258485;19;155150;-79
2023/02/03 02:30:48;;;;;;;;;;;;;;;20.55;42.36;102518.97;7261264;19;153914;-79
2023/02/03 02:33:26;;;;;;;;;;;;;;;20.52;42.46;102527.94;7263119;19;153191;-78
2023/02/03 02:35:53;;;;;;;;;;;;;;;20.52;42.41;102539.19;7262127;19;154221;-79
2023/02/03 02:38:23;;;;;;;;;;;;;;;20.50;42.89;102547.00;7262615;19;154749;-79
2023/02/03 02:40:54;;;;;;;;;;;;;;;20.50;42.62;102564.72;7264389;19;154669;-79
2023/02/03 02:43:27;;;;;;;;;;;;;;;20.47;42.74;102558.78;7264360;19;153520;-79
2023/02/03 02:46:00;;;;;;;;;;;;;;;20.47;42.69;102564.41;7271185;19;152872;-81
2023/02/03 02:48:32;;;;;;;;;;;;;;;20.47;42.68;102570.03;7258570;19;153515;-79
2023/02/03 02:51:02;;;;;;;;;;;;;;;20.42;42.63;102574.47;7253050;19;157099;-79
2023/02/03 02:53:32;;;;;;;;;;;;;;;20.40;42.94;102575.84;7255929;19;153147;-79
2023/02/03 02:56:02;;;;;;;;;;;;;;;20.41;42.64;102569.13;7255793;19;153986;-79
2023/02/03 02:58:31;;;;;;;;;;;;;;;20.39;43.15;102563.81;7254085;19;154765;-80
2023/02/03 03:00:57;;;;;;;;;;;;;;;20.37;43.04;102567.97;7256773;19;153877;-79
2023/02/03 03:03:24;;;;;;;;;;;;;;;20.34;42.96;102568.53;7256357;19;153663;-79
2023/02/03 03:05:54;;;;;;;;;;;;;;;20.34;43.27;102569.38;7254616;19;154206;-79
2023/02/03 03:08:27;;;;;;;;;;;;;;;20.31;43.29;102571.84;7263241;19;154337;-79
2023/02/03 03:10:56;;;;;;;;;;;;;;;20.31;43.11;102569.03;7256710;19;154783;-79
2023/02/03 03:13:26;;;;;;;;;;;;;;;20.29;43.39;102583.31;7256616;19;152469;-79
2023/02/03 03:15:55;;;;;;;;;;;;;;;20.25;43.56;102581.31;7260932;19;153324;-79
2023/02/03 03:18:25;;;;;;;;;;;;;;;20.25;43.49;102586.94;7258993;19;155185;-78
2023/02/03 03:20:54;;;;;;;;;;;;;;;20.24;43.49;102588.03;7256511;19;153963;-79
2023/02/03 03:23:24;;;;;;;;;;;;;;;20.23;43.39;102578.78;7259450;19;153633;-79
2023/02/03 03:25:56;;;;;;;;;;;;;;;20.23;43.49;102569.50;7258894;19;155927;-79
2023/02/03 03:28:27;;;;;;;;;;;;;;;20.22;43.10;102570.59;7264509;19;152390;-79
2023/02/03 03:30:53;;;;;;;;;;;;;;;20.19;43.28;102568.34;7257824;19;154578;-79
2023/02/03 03:33:21;;;;;;;;;;;;;;;20.18;43.60;102569.44;7258691;19;153833;-79
2023/02/03 03:35:50;;;;;;;;;;;;;;;20.22;43.59;102574.25;7256906;19;154274;-79
2023/02/03 03:38:20;;;;;;;;;;;;;;;20.17;43.40;102568.59;7256969;19;154353;-79
2023/02/03 03:40:50;;;;;;;;;;;;;;;20.19;43.49;102569.19;7259034;19;154811;-79
2023/02/03 03:43:20;;;;;;;;;;;;;;;20.17;43.59;102568.59;7255603;19;154047;-80
2023/02/03 03:45:50;;;;;;;;;;;;;;;20.13;43.54;102563.78;7255183;19;153975;-80
2023/02/03 03:48:18;;;;;;;;;;;;;;;20.11;43.98;102563.22;7256182;19;154470;-79
2023/02/03 03:50:48;;;;;;;;;;;;;;;20.10;43.72;102567.97;7259172;19;155565;-80
2023/02/03 03:53:16;;;;;;;;;;;;;;;20.10;43.89;102564.31;7252462;19;154071;-79
2023/02/03 03:55:46;;;;;;;;;;;;;;;20.08;43.80;102556.16;7253089;19;156543;-79
2023/02/03 03:58:15;;;;;;;;;;;;;;;20.06;43.69;102557.56;7251358;19;155284;-80
2023/02/03 04:00:43;;;;;;;;;;;;;;;20.08;43.95;102563.75;7260834;19;153826;-79
2023/02/03 04:03:14;;;;;;;;;;;;;;;20.07;43.63;102553.66;7260738;19;154247;-80
2023/02/03 04:05:41;;;;;;;;;;;;;;;20.03;43.70;102558.09;7260672;19;154835;-79
2023/02/03 04:08:08;;;;;;;;;;;;;;;20.02;43.63;102557.25;7263881;19;153898;-79
2023/02/03 04:10:36;;;;;;;;;;;;;;;19.99;44.17;102577.41;7261920;19;154873;-80
2023/02/03 04:13:03;;;;;;;;;;;;;;;20.00;44.24;102570.69;7271528;19;153816;-79
2023/02/03 04:15:31;;;;;;;;;;;;;;;19.97;44.24;102572.06;7266102;19;153036;-79
2023/02/03 04:18:02;;;;;;;;;;;;;;;19.99;44.14;102578.25;7264273;19;155077;-79
2023/02/03 04:20:30;;;;;;;;;;;;;;;19.93;44.33;102554.09;7264919;19;154480;-79
2023/02/03 04:22:57;;;;;;;;;;;;;;;19.92;43.91;102558.00;7265600;19;153091;-79
2023/02/03 04:25:25;;;;;;;;;;;;;;;19.93;44.13;102565.31;7267859;19;155774;-79
2023/02/03 04:27:51;;;;;;;;;;;;;;;19.94;44.05;102569.78;7266910;19;152728;-80
2023/02/03 04:30:18;;;;;;;;;;;;;;;19.91;43.92;102553.50;7264845;19;155848;-78
2023/02/03 04:32:45;;;;;;;;;;;;;;;19.90;43.84;102562.16;7268457;19;154242;-78
2023/02/03 04:35:13;;;;;;;;;;;;;;;19.90;44.16;102564.97;7279548;19;153746;-79
2023/02/03 04:37:40;;;;;;;;;;;;;;;19.88;43.94;102565.25;7270704;19;154636;-79
2023/02/03 04:40:08;;;;;;;;;;;;;;;19.85;44.21;102567.75;7269028;19;153368;-79
2023/02/03 04:42:37;;;;;;;;;;;;;;;19.84;44.12;102583.72;7266288;19;154056;-78
2023/02/03 04:45:04;;;;;;;;;;;;;;;19.82;43.85;102590.69;7267776;19;154386;-78
2023/02/03 04:47:31;;;;;;;;;;;;;;;19.81;43.82;102589.84;7269579;19;153652;-78
2023/02/03 04:49:59;;;;;;;;;;;;;;;19.79;43.83;102589.28;7267716;19;154900;-78
2023/02/03 04:52:26;;;;;;;;;;;;;;;19.80;44.06;102596.59;7264687;19;155719;-78
2023/02/03 04:54:53;;;;;;;;;;;;;;;19.79;44.21;102602.44;7270383;19;152559;-79
2023/02/03 04:57:21;;;;;;;;;;;;;;;19.74;44.27;102592.00;7273385;19;155479;-79
2023/02/03 04:59:48;;;;;;;;;;;;;;;19.75;43.98;102587.25;7263999;19;152847;-80
2023/02/03 05:02:15;;;;;;;;;;;;;;;19.74;44.28;102594.81;7262332;19;152974;-79
2023/02/03 05:04:42;;;;;;;;;;;;;;;19.73;43.98;102609.09;7260721;19;153036;-79
2023/02/03 05:07:10;;;;;;;;;;;;;;;19.75;43.94;102624.56;7261058;19;153544;-78
2023/02/03 05:09:37;;;;;;;;;;;;;;;19.71;44.06;102626.22;7259348;19;154829;-78
2023/02/03 05:12:05;;;;;;;;;;;;;;;19.70;44.28;102612.44;7259859;19;155668;-78
2023/02/03 05:14:32;;;;;;;;;;;;;;;19.68;44.31;102625.84;7262464;19;154461;-79
2023/02/03 05:16:59;;;;;;;;;;;;;;;19.67;44.16;102608.19;7260771;19;154153;-78
2023/02/03 05:19:27;;;;;;;;;;;;;;;19.65;44.17;102616.03;7267287;19;153343;-78
2023/02/03 05:21:54;;;;;;;;;;;;;;;19.64;44.62;102603.09;7262017;19;153813;-79
2023/02/03 05:24:21;;;;;;;;;;;;;;;19.64;44.66;102608.72;7263046;19;155426;-79
2023/02/03 05:26:47;;;;;;;;;;;;;;;19.61;44.71;102614.00;7261250;19;153866;-80
2023/02/03 05:29:14;;;;;;;;;;;;;;;19.61;44.33;102623.25;7261070;19;153904;-78
2023/02/03 05:31:41;;;;;;;;;;;;;;;19.60;44.48;102632.78;7261098;19;156863;-78
2023/02/03 05:34:08;;;;;;;;;;;;;;;19.61;44.46;102639.25;7264656;19;154072;-79
2023/02/03 05:36:35;;;;;;;;;;;;;;;19.58;44.52;102632.19;7262709;19;155947;-79
2023/02/03 05:39:02;;;;;;;;;;;;;;;19.59;44.83;102633.03;7266762;19;154516;-78
2023/02/03 05:44:00;;;;;;;;;;;;;;;19.58;44.44;102637.78;7258586;19;156049;-78
2023/02/03 05:46:27;;;;;;;;;;;;;;;19.61;44.91;102648.50;7261531;19;152650;-79
2023/02/03 05:48:54;;;;;;;;;;;;;;;19.60;45.11;102644.00;7260583;19;153148;-78
2023/02/03 05:51:21;;;;;;;;;;;;;;;19.60;45.15;102644.00;7259456;19;154343;-79
2023/02/03 05:53:48;;;;;;;;;;;;;;;19.67;45.43;102644.63;7258958;19;154481;-78
2023/02/03 05:56:15;;;;;;;;;;;;;;;19.73;45.29;102645.56;7261438;19;153854;-78
2023/02/03 05:58:42;;;;;;;;;;;;;;;19.78;45.52;102642.81;7258181;19;155009;-78
2023/02/03 06:01:10;;;;;;;;;;;;;;;19.82;45.32;102642.03;7271629;19;151901;-78
2023/02/03 06:03:37;;;;;;;;;;;;;;;19.87;45.58;102646.84;7265302;19;153692;-78
2023/02/03 06:06:05;;;;;;;;;;;;;;;19.92;45.26;102642.16;7261551;19;153088;-79
2023/02/03 06:08:31;;;;;;;;;;;;;;;19.97;45.41;102638.56;7264735;19;153991;-78
2023/02/03 06:10:59;;;;;;;;;;;;;;;20.03;45.34;102639.47;7264763;19;154277;-78
2023/02/03 06:13:26;;;;;;;;;;;;;;;20.09;45.26;102644.00;7266546;19;152931;-78
2023/02/03 06:15:53;;;;;;;;;;;;;;;20.15;45.11;102648.56;7265803;19;154538;-78
2023/02/03 06:18:20;;;;;;;;;;;;;;;20.18;45.28;102643.28;7263883;19;152536;-78
2023/02/03 06:20:49;;;;;;;;;;;;;;;20.23;45.20;102653.69;7264310;19;153518;-78
2023/02/03 06:23:17;;;;;;;;;;;;;;;20.28;45.18;102656.56;7268360;19;154493;-79
2023/02/03 06:25:46;;;;;;;;;;;;;;;20.33;45.40;102665.91;7264698;19;154452;-79
2023/02/03 06:28:13;;;;;;;;;;;;;;;20.38;45.64;102674.41;7263557;19;153709;-78
2023/02/03 06:30:41;;;;;;;;;;;;;;;20.44;44.96;102666.88;7259328;19;156076;-78
2023/02/03 06:33:08;;;;;;;;;;;;;;;20.50;45.33;102665.78;7264674;19;152951;-79
2023/02/03 06:35:35;;;;;;;;;;;;;;;20.54;44.84;102661.34;7263798;19;154533;-79
2023/02/03 06:38:02;;;;;;;;;;;;;;;20.58;44.74;102656.88;7260570;19;154456;-78
2023/02/03 06:40:29;;;;;;;;;;;;;;;20.63;45.06;102654.13;7261749;19;152658;-78
2023/02/03 06:42:56;;;;;;;;;;;;;;;20.68;44.79;102656.97;7259085;19;154393;-78
2023/02/03 06:45:23;;;;;;;;;;;;;;;20.72;44.59;102660.09;7271223;19;155082;-79
2023/02/03 06:47:50;;;;;;;;;;;;;;;20.76;44.23;102661.22;7266727;19;154442;-79
2023/02/03 06:50:17;;;;;;;;;;;;;;;20.79;44.21;102664.38;7263957;19;155062;-79
2023/02/03 06:52:45;;;;;;;;;;;;;;;20.83;44.13;102665.53;7261254;19;154175;-78
2023/02/03 06:55:12;;;;;;;;;;;;;;;20.86;43.92;102673.41;7263385;19;153556;-78
2023/02/03 06:57:43;;;;;;;;;;;;;;;20.89;43.57;102674.00;7261730;19;155426;-78
2023/02/03 07:00:12;;;;;;;;;;;;;;;20.92;43.51;102676.28;7260755;19;154096;-78
2023/02/03 07:02:42;;;;;;;;;;;;;;;20.95;43.54;102684.16;7259695;19;156087;-78
2023/02/03 07:05:10;;;;;;;;;;;;;;;20.95;43.40;102684.16;7258377;19;156080;-79
2023/02/03 07:07:38;;;;;;;;;;;;;;;20.97;43.56;102682.78;7268646;19;153094;-79
2023/02/03 07:10:05;;;;;;;;;;;;;;;21.00;43.50;102690.66;7260604;19;156026;-78
2023/02/03 07:12:32;;;;;;;;;;;;;;;21.03;43.29;102695.72;7260184;19;154043;-78
2023/02/03 07:14:59;;;;;;;;;;;;;;;21.04;43.38;102702.22;7259299;19;153741;-79
2023/02/03 07:17:26;;;;;;;;;;;;;;;21.07;43.38;102704.50;7263940;19;153995;-78
2023/02/03 07:19:53;;;;;;;;;;;;;;;21.07;43.41;102698.88;7263076;19;153075;-77
2023/02/03 07:22:21;;;;;;;;;;;;;;;21.08;43.12;102700.53;7260641;19;154876;-78
2023/02/03 07:24:48;;;;;;;;;;;;;;;21.09;43.18;102707.88;7257923;19;154812;-77
2023/02/03 07:27:15;;;;;;;;;;;;;;;21.08;42.78;102701.41;7266088;19;154186;-77
2023/02/03 07:29:42;;;;;;;;;;;;;;;21.07;43.00;102707.31;7256208;19;154317;-77
2023/02/03 07:32:09;;;;;;;;;;;;;;;21.04;42.77;102705.03;7259820;19;153637;-78
2023/02/03 07:34:36;;;;;;;;;;;;;;;21.02;42.61;102701.66;7256229;19;154444;-79
2023/02/03 07:37:03;;;;;;;;;;;;;;;21.02;42.71;102702.50;7262393;19;154225;-77
2023/02/03 07:39:31;;;;;;;;;;;;;;;20.99;42.02;102696.53;7267621;19;153880;-77
2023/02/03 07:41:58;;;;;;;;;;;;;;;20.94;42.12;102700.16;7266537;19;153684;-78
2023/02/03 07:44:25;;;;;;;;;;;;;;;20.92;41.99;102707.19;7265874;19;154725;-76
2023/02/03 07:46:52;;;;;;;;;;;;;;;20.93;41.73;102709.72;7266473;19;153333;-77
2023/02/03 07:49:22;;;;;;;;;;;;;;;20.90;41.71;102709.41;7274952;19;153505;-78
2023/02/03 07:51:50;;;;;;;;;;;;;;;20.87;41.91;102716.41;7265565;19;152335;-77
2023/02/03 07:54:18;;;;;;;;;;;;;;;20.93;41.76;102715.34;7267065;19;153214;-77
2023/02/03 07:56:44;;;;;;;;;;;;;;;20.90;41.58;102724.28;7262812;19;156237;-77
2023/02/03 07:59:12;;;;;;;;;;;;;;;20.92;41.50;102733.31;7265579;19;153466;-77
2023/02/03 08:01:39;;;;;;;;;;;;;;;20.92;41.89;102726.84;7265559;19;156353;-78
2023/02/03 08:04:07;;;;;;;;;;;;;;;20.93;41.68;102731.34;7261475;19;155358;-77
2023/02/03 08:06:34;;;;;;;;;;;;;;;20.95;41.74;102718.72;7264055;19;153547;-78
2023/02/03 08:09:01;;;;;;;;;;;;;;;20.96;41.61;102714.81;7265355;19;153959;-77
2023/02/03 08:11:31;;;;;;;;;;;;;;;20.97;41.85;102705.25;7270147;19;154536;-77
2023/02/03 08:13:58;;;;;;;;;;;;;;;20.99;41.36;102705.81;7267654;19;152720;-77
2023/02/03 08:16:25;;;;;;;;;;;;;;;21.01;41.45;102714.00;7264117;19;155470;-77
2023/02/03 08:18:53;;;;;;;;;;;;;;;21.03;41.56;102712.59;7267062;19;153943;-77
2023/02/03 08:21:22;;;;;;;;;;;;;;;21.05;41.32;102716.00;7267762;19;155081;-77
2023/02/03 08:23:49;;;;;;;;;;;;;;;21.07;41.29;102710.13;7266236;19;153669;-77
2023/02/03 08:26:16;;;;;;;;;;;;;;;21.10;41.63;102721.66;7266354;19;153314;-78
2023/02/03 08:28:47;;;;;;;;;;;;;;;21.10;41.70;102723.63;7264408;19;154195;-81
2023/02/03 08:31:14;;;;;;;;;;;;;;;21.16;41.34;102726.25;7265203;19;154024;-80
2023/02/03 08:33:41;;;;;;;;;;;;;;;20.82;39.91;102739.69;7277476;19;151980;-80
2023/02/03 08:36:10;;;;;;;;;;;;;;;20.92;40.81;102738.09;7271243;19;154543;-80
2023/02/03 08:38:38;;;;;;;;;;;;;;;21.00;41.07;102743.22;7272304;19;152775;-79
2023/02/03 08:41:08;;;;;;;;;;;;;;;21.03;41.14;102734.25;7269906;19;154135;-79
2023/02/03 08:43:35;;;;;;;;;;;;;;;21.03;40.99;102742.69;7262238;19;154321;-79
2023/02/03 08:46:03;;;;;;;;;;;;;;;21.04;41.07;102744.38;7270354;19;153924;-79
2023/02/03 08:48:30;;;;;;;;;;;;;;;21.03;40.96;102749.13;7273757;19;153601;-78
2023/02/03 08:50:57;;;;;;;;;;;;;;;21.04;40.66;102753.66;7268554;19;156408;-79
2023/02/03 08:53:24;;;;;;;;;;;;;;;21.05;41.01;102766.59;7271749;19;154010;-79
2023/02/03 08:55:51;;;;;;;;;;;;;;;21.07;40.63;102757.91;7277037;19;158563;-80
2023/02/03 08:58:18;;;;;;;;;;;;;;;21.08;41.10;102763.22;7268157;19;153467;-80
2023/02/03 09:00:48;;;;;;;;;;;;;;;21.10;40.84;102765.78;7266689;19;155384;-79
2023/02/03 09:03:16;;;;;;;;;;;;;;;21.09;40.73;102764.94;7264933;19;155086;-79
2023/02/03 09:05:43;;;;;;;;;;;;;;;21.10;41.08;102754.53;7272678;19;153849;-79
2023/02/03 09:08:11;;;;;;;;;;;;;;;21.08;41.10;102760.41;7274684;19;153570;-80
2023/02/03 09:10:38;;;;;;;;;;;;;;;21.05;40.72;102765.75;7273141;19;154646;-79
2023/02/03 09:13:05;;;;;;;;;;;;;;;21.05;41.14;102768.56;7274620;19;153834;-78
2023/02/03 09:15:32;;;;;;;;;;;;;;;21.02;41.13;102771.91;7273230;19;154362;-79
2023/02/03 09:17:59;;;;;;;;;;;;;;;21.12;40.97;102777.63;7282123;19;154183;-82
2023/02/03 09:20:26;;;;;;;;;;;;;;;21.14;43.66;102784.69;7277919;19;154371;-81
2023/02/03 09:22:58;;;;;;;;;;;;;;;21.09;44.35;102783.75;7278139;19;152922;-82
2023/02/03 09:25:25;;;;;;;;;;;;;;;21.03;43.80;102787.66;7278575;19;152703;-82
2023/02/03 09:27:54;;;;;;;;;;;;;;;21.03;43.11;102790.47;7277165;19;155325;-81
2023/02/03 09:30:20;;;;;;;;;;;;;;;21.05;42.99;102796.66;7275673;19;154504;-82
2023/02/03 09:32:52;;;;;;;;;;;;;;;21.03;42.85;102794.09;7279209;19;154535;-81
2023/02/03 09:35:20;;;;;;;;;;;;;;;21.05;42.69;102791.03;7279028;19;153657;-82
2023/02/03 09:37:47;;;;;;;;;;;;;;;21.02;42.22;102789.63;7284195;19;155684;-81
2023/02/03 09:40:17;;;;;;;;;;;;;;;20.97;42.19;102798.00;7279827;19;155068;-81
2023/02/03 09:42:45;;;;;;;;;;;;;;;21.02;42.47;102791.56;7280699;19;154086;-82
2023/02/03 09:45:15;;;;;;;;;;;;;;;20.91;42.63;102795.38;7281308;19;152925;-82
2023/02/03 09:47:43;;;;;;;;;;;;;;;20.83;42.41;102803.19;7279683;19;154266;-81
2023/02/03 09:50:13;;;;;;;;;;;;;;;20.80;42.59;102817.75;7278869;19;153954;-82
2023/02/03 09:52:43;;;;;;;;;;;;;;;20.90;41.86;102821.78;7278972;19;153348;-80
2023/02/03 09:55:12;;;;;;;;;;;;;;;20.81;42.39;102832.66;7278181;19;152265;-80
2023/02/03 09:57:43;;;;;;;;;;;;;;;20.82;42.29;102843.63;7271813;19;153971;-80
2023/02/03 10:00:13;;;;;;;;;;;;;;;20.81;42.10;102841.09;7274217;19;152393;-81
2023/02/03 10:02:48;;;;;;;;;;;;;;;20.80;42.02;102853.47;7266077;19;155668;-80
2023/02/03 10:05:18;;;;;;;;;;;;;;;20.78;42.04;102852.84;7275243;19;151998;-80
2023/02/03 10:07:49;;;;;;;;;;;;;;;20.83;42.23;102850.09;7276126;19;156371;-80
2023/02/03 10:10:19;;;;;;;;;;;;;;;20.88;42.01;102869.84;7272686;19;154103;-81
2023/02/03 10:12:52;;;;;;;;;;;;;;;20.89;42.13;102874.34;7274764;19;152879;-80
2023/02/03 10:15:22;;;;;;;;;;;;;;;20.90;42.17;102878.84;7272840;19;154945;-81
2023/02/03 10:17:53;;;;;;;;;;;;;;;20.92;41.93;102881.38;7273056;19;153950;-81
2023/02/03 10:20:23;;;;;;;;;;;;;;;20.96;42.28;102891.00;7276323;19;152535;-81
2023/02/03 10:22:52;;;;;;;;;;;;;;;21.00;41.73;102889.34;7280697;19;152715;-80
2023/02/03 10:25:23;;;;;;;;;;;;;;;21.04;41.88;102890.50;7277378;19;152699;-80
2023/02/03 10:27:54;;;;;;;;;;;;;;;21.06;41.84;102889.16;7277959;19;155232;-80
2023/02/03 10:30:23;;;;;;;;;;;;;;;21.12;42.02;102893.69;7274601;19;154687;-81
2023/02/03 10:32:53;;;;;;;;;;;;;;;21.16;41.60;102888.44;7274580;19;153322;-80
2023/02/03 10:35:23;;;;;;;;;;;;;;;21.19;41.37;102883.13;7274531;19;154984;-80
2023/02/03 10:37:54;;;;;;;;;;;;;;;21.22;41.36;102892.97;7274409;19;153840;-81
2023/02/03 10:40:23;;;;;;;;;;;;;;;21.25;41.80;102892.47;7274347;19;152206;-82
2023/02/03 10:45:24;;;;;;;;;;;;;;;21.34;41.53;102899.31;7279312;19;152523;-80
2023/02/03 10:47:53;;;;;;;;;;;;;;;21.40;41.14;102909.47;7274371;19;154422;-81
2023/02/03 10:50:23;;;;;;;;;;;;;;;21.44;41.28;102902.19;7273862;19;155892;-81
2023/02/03 10:52:50;;;;;;;;;;;;;;;21.47;41.21;102906.44;7271202;19;152721;-81
2023/02/03 10:55:20;;;;;;;;;;;;;;;21.51;40.94;102900.03;7274200;19;153954;-81
2023/02/03 10:57:48;;;;;;;;;;;;;;;21.54;41.13;102899.47;7272213;19;154530;-80
2023/02/03 11:00:18;;;;;;;;;;;;;;;21.56;41.11;102916.94;7274358;19;152346;-80
2023/02/03 11:06:04;;;;;;;;;;;;;;;21.61;40.85;102907.72;7272848;19;154215;-80
2023/02/03 11:08:32;;;;;;;;;;;;;;;21.61;40.64;102908.56;7278698;19;153482;-80
2023/02/03 11:11:02;;;;;;;;;;;;;;;21.64;40.88;102909.97;7272580;19;156009;-81
2023/02/03 11:13:29;;;;;;;;;;;;;;;21.66;40.49;102910.56;7272670;19;154726;-80
2023/02/03 11:16:01;;;;;;;;;;;;;;;21.67;40.95;102901.84;7273249;19;154981;-80
2023/02/03 11:18:32;;;;;;;;;;;;;;;21.68;40.33;102911.97;7272574;19;155267;-81
2023/02/03 11:20:59;;;;;;;;;;;;;;;21.69;40.87;102905.25;7274864;19;153224;-81
2023/02/03 11:23:27;;;;;;;;;;;;;;;21.73;40.40;102908.34;7272661;19;155406;-81
2023/02/03 11:25:54;;;;;;;;;;;;;;;21.73;40.63;102914.84;7273878;19;154199;-81
2023/02/03 11:28:27;;;;;;;;;;;;;;;21.75;40.35;102920.22;7275412;19;153801;-81
2023/02/03 11:30:56;;;;;;;;;;;;;;;21.76;40.68;102904.19;7281130;19;156433;-81
2023/02/03 11:33:25;;;;;;;;;;;;;;;21.74;40.65;102902.47;7275637;19;153188;-81
2023/02/03 11:35:58;;;;;;;;;;;;;;;21.76;40.47;102898.56;7274717;19;153850;-81
2023/02/03 11:38:28;;;;;;;;;;;;;;;21.78;40.21;102899.97;7273688;19;154706;-81
2023/02/03 11:40:58;;;;;;;;;;;;;;;21.77;40.42;102906.69;7273455;19;154869;-81
2023/02/03 11:43:27;;;;;;;;;;;;;;;21.79;39.87;102906.44;7274318;19;155598;-81
2023/02/03 11:45:59;;;;;;;;;;;;;;;21.80;39.75;102911.81;7273395;19;155783;-81
2023/02/03 11:48:30;;;;;;;;;;;;;;;21.81;39.79;102915.44;7275418;19;152464;-80
2023/02/03 11:50:58;;;;;;;;;;;;;;;21.79;40.24;102915.75;7278773;19;154146;-81
2023/02/03 11:53:26;;;;;;;;;;;;;;;21.77;40.24;102917.09;7275919;19;152206;-81
2023/02/03 11:55:56;;;;;;;;;;;;;;;21.74;40.22;102918.50;7277142;19;154691;-81
2023/02/03 11:58:27;;;;;;;;;;;;;;;21.73;39.88;102912.03;7273695;19;152636;-81
2023/02/03 12:00:57;;;;;;;;;;;;;;;21.73;40.15;102900.78;7279780;19;152711;-81
2023/02/03 12:03:26;;;;;;;;;;;;;;;21.75;40.00;102900.50;7275980;19;154604;-81
2023/02/03 12:05:54;;;;;;;;;;;;;;;21.74;40.08;102907.25;7274919;19;153436;-81
2023/02/03 12:08:22;;;;;;;;;;;;;;;21.68;39.87;102897.91;7279816;19;152815;-81
2023/02/03 12:10:52;;;;;;;;;;;;;;;21.73;39.78;102903.59;7278599;19;154088;-80
2023/02/03 12:13:22;;;;;;;;;;;;;;;21.71;39.72;102903.00;7284185;19;156971;-80
2023/02/03 12:15:52;;;;;;;;;;;;;;;21.62;40.28;102909.41;7284705;19;154808;-81
2023/02/03 12:18:22;;;;;;;;;;;;;;;21.63;39.98;102905.44;7284066;19;156392;-81
2023/02/03 12:20:58;;;;;;;;;;;;;;;21.61;40.51;102907.72;7280867;19;154744;-81
2023/02/03 12:23:29;;;;;;;;;;;;;;;21.59;40.16;102916.41;7278017;19;152220;-82
2023/02/03 12:25:59;;;;;;;;;;;;;;;21.56;40.20;102918.91;7279057;19;155675;-81
2023/02/03 12:28:28;;;;;;;;;;;;;;;21.55;40.25;102915.25;7277705;19;152638;-81
2023/02/03 12:31:04;;;;;;;;;;;;;;;21.52;40.48;102892.44;7280945;19;152661;-80
2023/02/03 12:33:43;;;;;;;;;;;;;;;21.52;40.32;102903.69;7280486;19;155163;-82
2023/02/03 12:36:13;;;;;;;;;;;;;;;21.58;40.21;102903.44;7287257;19;153442;-81
2023/02/03 12:38:44;;;;;;;;;;;;;;;21.64;40.28;102898.72;7278362;19;154938;-80
2023/02/03 12:41:13;;;;;;;;;;;;;;;21.65;40.39;102898.47;7280372;19;154612;-82
2023/02/03 12:43:48;;;;;;;;;;;;;;;21.65;40.18;102895.66;7277705;19;153945;-82